createdAt,value
2019-06-26T00:01:32.269Z,7.67
2019-06-26T00:04:03.655Z,7.37
2019-06-26T00:06:34.994Z,7.03
2019-06-26T00:09:09.119Z,8.23
2019-06-26T00:11:40.680Z,7.70
2019-06-26T00:14:12.108Z,7.92
2019-06-26T00:16:43.919Z,7.60
2019-06-26T00:19:15.313Z,7.90
2019-06-26T00:21:47.084Z,8.33
2019-06-26T00:24:18.383Z,8.48
2019-06-26T00:26:49.732Z,7.78
2019-06-26T00:29:21.273Z,8.08
2019-06-26T00:31:53.093Z,8.65
2019-06-26T00:34:24.320Z,8.30
2019-06-26T00:36:55.623Z,7.95
2019-06-26T00:39:27.425Z,8.03
2019-06-26T00:41:58.828Z,8.90
2019-06-26T00:44:30.120Z,8.25
2019-06-26T00:47:01.450Z,8.40
2019-06-26T00:49:32.973Z,8.03
2019-06-26T00:52:04.296Z,8.18
2019-06-26T00:54:35.862Z,8.68
2019-06-26T00:57:07.272Z,8.35
2019-06-26T00:59:38.832Z,8.78
2019-06-26T01:02:10.456Z,9.65
2019-06-26T01:04:44.165Z,10.00
2019-06-26T01:07:15.597Z,10.72
2019-06-26T01:09:47.017Z,9.93
2019-06-26T01:12:18.748Z,10.85
2019-06-26T01:14:50.375Z,10.60
2019-06-26T01:17:21.668Z,11.30
2019-06-26T01:19:52.952Z,10.63
2019-06-26T01:22:24.918Z,12.58
2019-06-26T01:24:57.063Z,11.53
2019-06-26T01:27:29.137Z,11.40
2019-06-26T01:30:00.642Z,12.95
2019-06-26T01:32:31.932Z,13.32
2019-06-26T01:35:03.388Z,13.48
2019-06-26T01:37:34.767Z,14.58
2019-06-26T01:40:06.616Z,15.05
2019-06-26T01:42:37.941Z,14.13
2019-06-26T01:45:10.196Z,16.37
2019-06-26T01:47:41.463Z,18.37
2019-06-26T01:50:13.411Z,17.00
2019-06-26T01:52:44.783Z,18.45
2019-06-26T01:55:16.456Z,18.73
2019-06-26T01:57:47.766Z,18.87
2019-06-26T02:00:20.018Z,17.92
2019-06-26T02:02:51.371Z,18.95
2019-06-26T02:05:22.646Z,18.25
2019-06-26T02:07:54.463Z,17.95
2019-06-26T02:10:25.870Z,18.17
2019-06-26T02:12:57.175Z,18.57
2019-06-26T02:15:28.783Z,16.67
2019-06-26T02:18:00.381Z,17.48
2019-06-26T02:20:31.620Z,15.58
2019-06-26T02:23:02.834Z,15.23
2019-06-26T02:25:34.247Z,17.02
2019-06-26T02:28:05.909Z,17.45
2019-06-26T02:30:37.232Z,16.52
2019-06-26T02:33:08.609Z,17.62
2019-06-26T02:35:39.865Z,17.65
2019-06-26T02:38:11.451Z,16.48
2019-06-26T02:40:42.887Z,16.70
2019-06-26T02:43:14.236Z,16.70
2019-06-26T02:45:45.585Z,16.95
2019-06-26T02:48:17.041Z,16.97
2019-06-26T02:50:48.340Z,16.80
2019-06-26T02:53:19.728Z,18.25
2019-06-26T02:55:51.486Z,17.57
2019-06-26T02:58:22.800Z,17.33
2019-06-26T03:00:54.188Z,17.30
2019-06-26T03:03:25.580Z,17.17
2019-06-26T03:05:56.939Z,15.53
2019-06-26T03:08:28.215Z,17.85
2019-06-26T03:10:59.996Z,17.85
2019-06-26T03:13:31.670Z,17.77
2019-06-26T03:16:03.249Z,17.62
2019-06-26T03:18:35.030Z,18.23
2019-06-26T03:21:06.407Z,17.20
2019-06-26T03:23:37.703Z,15.90
2019-06-26T03:26:09.315Z,16.27
2019-06-26T03:28:40.647Z,16.40
2019-06-26T03:31:12.023Z,17.73
2019-06-26T03:33:44.673Z,20.32
2019-06-26T03:36:15.958Z,16.37
2019-06-26T03:38:47.291Z,14.10
2019-06-26T03:41:18.607Z,14.83
2019-06-26T03:43:50.290Z,13.98
2019-06-26T03:46:21.650Z,15.50
2019-06-26T03:48:53.700Z,19.25
2019-06-26T03:51:25.360Z,17.80
2019-06-26T03:53:56.681Z,20.80
2019-06-26T03:56:28.129Z,22.45
2019-06-26T03:58:59.342Z,24.43
2019-06-26T04:01:30.623Z,26.68
2019-06-26T04:04:02.003Z,27.13
2019-06-26T04:06:33.279Z,27.42
2019-06-26T04:09:05.443Z,24.92
2019-06-26T04:11:36.734Z,23.87
2019-06-26T04:14:10.149Z,23.52
2019-06-26T04:16:44.455Z,27.05
2019-06-26T04:19:15.797Z,28.92
2019-06-26T04:21:47.117Z,30.17
2019-06-26T04:24:18.784Z,32.88
2019-06-26T04:26:50.671Z,30.27
2019-06-26T04:29:22.363Z,30.62
2019-06-26T04:31:53.694Z,31.00
2019-06-26T04:34:25.165Z,28.10
2019-06-26T04:37:14.300Z,28.27
2019-06-26T04:40:03.705Z,29.05
2019-06-26T04:42:52.860Z,28.30
2019-06-26T04:45:57.093Z,30.75
2019-06-26T04:48:33.446Z,30.77
2019-06-26T04:51:22.923Z,29.57
2019-06-26T04:54:12.314Z,30.20
2019-06-26T04:57:01.748Z,31.82
2019-06-26T04:59:51.324Z,29.55
2019-06-26T05:02:40.865Z,29.77
2019-06-26T05:05:39.519Z,25.40
2019-06-26T05:08:21.883Z,26.05
2019-06-26T05:11:12.769Z,25.88
2019-06-26T05:14:02.702Z,24.82
2019-06-26T05:16:51.981Z,24.82
2019-06-26T05:19:41.146Z,21.07
2019-06-26T05:22:30.431Z,21.23
2019-06-26T05:25:20.060Z,21.00
2019-06-26T05:28:09.222Z,17.42
2019-06-26T05:30:58.631Z,20.00
2019-06-26T05:33:47.936Z,22.05
2019-06-26T05:36:36.816Z,22.35
2019-06-26T05:39:45.195Z,21.48
2019-06-26T05:42:34.160Z,21.80
2019-06-26T05:45:23.856Z,21.57
2019-06-26T05:48:12.589Z,23.95
2019-06-26T05:51:02.103Z,26.00
2019-06-26T05:53:51.473Z,25.80
2019-06-26T05:56:40.897Z,26.73
2019-06-26T05:59:30.147Z,24.12
2019-06-26T06:02:19.500Z,25.52
2019-06-26T06:05:09.524Z,25.17
2019-06-26T06:07:58.673Z,27.13
2019-06-26T06:10:48.205Z,25.88
2019-06-26T06:13:37.270Z,26.87
2019-06-26T06:16:26.473Z,26.97
2019-06-26T06:19:15.728Z,27.90
2019-06-26T06:22:04.896Z,26.55
2019-06-26T06:24:54.363Z,29.07
2019-06-26T06:27:43.167Z,26.95
2019-06-26T06:30:32.419Z,24.25
2019-06-26T06:33:21.943Z,24.80
2019-06-26T06:36:11.566Z,25.35
2019-06-26T06:39:01.081Z,27.98
2019-06-26T06:41:50.451Z,28.27
2019-06-26T06:44:39.810Z,29.55
2019-06-26T06:47:28.562Z,27.02
2019-06-26T06:50:18.426Z,28.35
2019-06-26T06:53:08.102Z,25.55
2019-06-26T06:55:57.157Z,25.60
2019-06-26T06:58:46.619Z,27.82
2019-06-26T07:01:36.067Z,25.65
2019-06-26T07:04:25.210Z,27.20
2019-06-26T07:07:13.986Z,27.27
2019-06-26T07:10:02.995Z,26.12
2019-06-26T07:12:56.086Z,26.25
2019-06-26T07:15:45.533Z,26.23
2019-06-26T07:18:34.751Z,28.15
2019-06-26T07:21:24.048Z,27.70
2019-06-26T07:24:13.669Z,28.70
2019-06-26T07:27:03.810Z,28.32
2019-06-26T07:29:52.870Z,26.27
2019-06-26T07:32:41.751Z,30.27
2019-06-26T07:35:30.717Z,25.62
2019-06-26T07:38:19.932Z,28.05
2019-06-26T07:41:08.518Z,28.67
2019-06-26T07:43:57.530Z,30.10
2019-06-26T07:46:46.679Z,25.30
2019-06-26T07:49:35.779Z,30.32
2019-06-26T07:52:24.998Z,31.55
2019-06-26T07:55:15.095Z,28.57
2019-06-26T07:58:04.294Z,30.35
2019-06-26T08:00:53.771Z,25.75
2019-06-26T08:03:42.841Z,27.62
2019-06-26T08:06:31.812Z,27.37
2019-06-26T08:09:21.560Z,23.87
2019-06-26T08:12:11.125Z,22.48
2019-06-26T08:15:00.924Z,25.10
2019-06-26T08:18:00.508Z,26.93
2019-06-26T08:21:00.531Z,24.77
2019-06-26T08:23:32.083Z,23.92
2019-06-26T08:26:21.769Z,24.37
2019-06-26T08:29:10.810Z,22.98
2019-06-26T08:32:00.210Z,21.80
2019-06-26T08:34:49.545Z,25.82
2019-06-26T08:37:38.763Z,26.40
2019-06-26T08:40:28.325Z,24.37
2019-06-26T08:43:17.405Z,24.72
2019-06-26T08:46:06.955Z,23.75
2019-06-26T08:48:56.680Z,20.20
2019-06-26T08:51:46.033Z,27.27
2019-06-26T08:54:35.314Z,26.60
2019-06-26T08:57:24.634Z,27.45
2019-06-26T09:00:15.396Z,22.60
2019-06-26T09:03:05.026Z,21.70
2019-06-26T09:05:54.695Z,25.48
2019-06-26T09:08:43.760Z,24.72
2019-06-26T09:11:32.920Z,24.32
2019-06-26T09:14:22.065Z,27.90
2019-06-26T09:17:11.422Z,28.23
2019-06-26T09:20:00.227Z,31.52
2019-06-26T09:22:49.356Z,24.80
2019-06-26T09:25:38.444Z,28.23
2019-06-26T09:28:28.221Z,26.25
2019-06-26T09:31:18.624Z,29.77
2019-06-26T09:34:07.758Z,25.45
2019-06-26T09:36:56.728Z,23.85
2019-06-26T09:39:45.335Z,24.37
2019-06-26T09:42:34.862Z,26.77
2019-06-26T09:45:24.441Z,25.23
2019-06-26T09:48:13.919Z,26.30
2019-06-26T09:51:02.808Z,24.20
2019-06-26T09:53:51.922Z,15.05
2019-06-26T09:56:40.843Z,18.95
2019-06-26T09:59:29.622Z,20.15
2019-06-26T10:02:19.113Z,19.02
2019-06-26T10:05:08.376Z,19.35
2019-06-26T10:07:57.857Z,21.68
2019-06-26T10:10:47.224Z,22.02
2019-06-26T10:13:36.432Z,18.12
2019-06-26T10:16:25.810Z,18.60
2019-06-26T10:19:15.210Z,19.60
2019-06-26T10:22:04.598Z,22.13
2019-06-26T10:24:54.252Z,20.45
2019-06-26T10:27:43.572Z,16.12
2019-06-26T10:30:33.092Z,18.02
2019-06-26T10:33:22.176Z,18.48
2019-06-26T10:36:11.492Z,20.17
2019-06-26T10:39:00.824Z,15.70
2019-06-26T10:41:53.896Z,16.27
2019-06-26T10:44:41.268Z,13.55
2019-06-26T10:47:30.676Z,18.65
2019-06-26T10:50:20.503Z,18.07
2019-06-26T10:53:09.983Z,15.55
2019-06-26T10:55:58.895Z,14.30
2019-06-26T10:58:48.606Z,15.18
2019-06-26T11:01:37.586Z,16.23
2019-06-26T11:04:27.150Z,17.65
2019-06-26T11:07:16.488Z,18.85
2019-06-26T11:10:06.998Z,16.27
2019-06-26T11:12:56.247Z,12.50
2019-06-26T11:15:45.843Z,15.40
2019-06-26T11:18:35.529Z,13.48
2019-06-26T11:21:24.986Z,14.75
2019-06-26T11:24:14.100Z,14.93
2019-06-26T11:27:02.926Z,12.63
2019-06-26T11:29:51.931Z,12.58
2019-06-26T11:32:41.554Z,12.98
2019-06-26T11:35:31.757Z,11.12
2019-06-26T11:38:20.720Z,11.00
2019-06-26T11:41:10.730Z,10.15
2019-06-26T11:44:00.035Z,9.68
2019-06-26T11:46:50.162Z,8.83
2019-06-26T11:49:39.366Z,9.65
2019-06-26T11:52:28.902Z,9.53
2019-06-26T11:55:19.174Z,8.13
2019-06-26T11:58:08.598Z,8.05
2019-06-26T12:00:57.625Z,7.90
2019-06-26T12:03:46.780Z,8.10
2019-06-26T12:06:36.067Z,7.97
2019-06-26T12:09:25.111Z,7.47
2019-06-26T12:12:14.447Z,6.85
2019-06-26T12:15:04.991Z,5.65
2019-06-26T12:17:54.227Z,6.67
2019-06-26T12:20:43.737Z,7.62
2019-06-26T12:23:33.135Z,7.60
2019-06-26T12:26:22.126Z,7.42
2019-06-26T12:29:11.852Z,7.28
2019-06-26T12:32:01.435Z,7.00
2019-06-26T12:34:50.386Z,6.60
2019-06-26T12:37:40.052Z,7.05
2019-06-26T12:40:31.255Z,6.70
2019-06-26T12:43:19.705Z,6.92
2019-06-26T12:46:08.666Z,7.60
2019-06-26T12:48:58.187Z,8.20
2019-06-26T12:51:47.426Z,7.97
2019-06-26T12:54:37.004Z,8.65
2019-06-26T12:57:26.156Z,9.13
2019-06-26T13:00:17.401Z,8.88
2019-06-26T13:03:07.278Z,7.70
2019-06-26T13:05:56.151Z,8.38
2019-06-26T13:08:45.671Z,9.35
2019-06-26T13:11:34.911Z,11.53
2019-06-26T13:14:23.887Z,11.45
2019-06-26T13:17:13.505Z,11.60
2019-06-26T13:20:02.656Z,13.78
2019-06-26T13:22:52.048Z,10.72
2019-06-26T13:25:41.442Z,9.65
2019-06-26T13:28:31.229Z,9.68
2019-06-26T13:31:20.524Z,11.00
2019-06-26T13:34:10.175Z,11.50
2019-06-26T13:36:59.040Z,14.87
2019-06-26T13:39:48.696Z,13.03
2019-06-26T13:42:37.947Z,13.38
2019-06-26T13:45:27.325Z,12.50
2019-06-26T13:48:16.420Z,12.75
2019-06-26T13:51:09.673Z,13.45
2019-06-26T13:53:57.022Z,12.63
2019-06-26T13:56:46.967Z,12.73
2019-06-26T13:59:35.758Z,12.35
2019-06-26T14:02:24.670Z,12.63
2019-06-26T14:05:14.200Z,13.50
2019-06-26T14:08:03.070Z,12.82
2019-06-26T14:10:52.521Z,12.33
2019-06-26T14:13:42.129Z,13.68
2019-06-26T14:16:31.891Z,14.83
2019-06-26T14:19:20.841Z,13.75
2019-06-26T14:22:12.961Z,14.90
2019-06-26T14:25:00.936Z,13.58
2019-06-26T14:27:50.452Z,14.05
2019-06-26T14:30:39.864Z,12.98
2019-06-26T14:33:28.670Z,13.98
2019-06-26T14:36:17.774Z,13.55
2019-06-26T14:39:08.435Z,15.13
2019-06-26T14:41:57.922Z,15.78
2019-06-26T14:44:47.361Z,16.73
2019-06-26T14:47:36.022Z,17.95
2019-06-26T14:50:25.719Z,16.57
2019-06-26T14:53:14.651Z,16.12
2019-06-26T14:56:03.803Z,18.05
2019-06-26T14:58:53.263Z,19.37
2019-06-26T15:01:42.358Z,23.85
2019-06-26T15:04:31.510Z,22.80
2019-06-26T15:07:20.809Z,25.92
2019-06-26T15:10:10.855Z,24.52
2019-06-26T15:13:00.446Z,24.60
2019-06-26T15:15:49.949Z,21.48
2019-06-26T15:18:39.288Z,20.62
2019-06-26T15:21:27.999Z,21.80
2019-06-26T15:24:17.047Z,21.57
2019-06-26T15:27:05.807Z,20.57
2019-06-26T15:29:55.534Z,18.75
2019-06-26T15:32:44.598Z,18.35
2019-06-26T15:35:35.538Z,18.48
2019-06-26T15:38:25.008Z,18.05
2019-06-26T15:41:13.778Z,15.72
2019-06-26T15:44:02.784Z,15.23
2019-06-26T15:46:52.027Z,13.32
2019-06-26T15:49:41.179Z,12.28
2019-06-26T15:52:31.585Z,13.68
2019-06-26T15:55:21.097Z,13.05
2019-06-26T15:58:10.927Z,12.20
2019-06-26T16:00:59.629Z,10.23
2019-06-26T16:03:48.371Z,9.93
2019-06-26T16:06:37.624Z,10.15
2019-06-26T16:09:26.633Z,8.30
2019-06-26T16:12:15.487Z,8.68
2019-06-26T16:15:04.984Z,7.83
2019-06-26T16:18:19.267Z,7.53
2019-06-26T16:21:08.438Z,7.10
2019-06-26T16:23:57.853Z,7.08
2019-06-26T16:26:46.936Z,7.15
2019-06-26T16:29:36.057Z,7.25
2019-06-26T16:32:25.228Z,7.83
2019-06-26T16:35:14.932Z,8.50
2019-06-26T16:38:03.803Z,10.05
2019-06-26T16:40:52.799Z,9.98
2019-06-26T16:43:42.397Z,10.88
2019-06-26T16:46:31.809Z,10.40
2019-06-26T16:49:20.553Z,10.58
2019-06-26T16:52:09.749Z,10.28
2019-06-26T16:54:59.166Z,10.85
2019-06-26T16:57:48.479Z,10.48
2019-06-26T17:00:37.982Z,11.90
2019-06-26T17:03:26.936Z,11.33
2019-06-26T17:06:16.394Z,12.25
2019-06-26T17:09:08.395Z,13.35
2019-06-26T17:11:57.129Z,14.05
2019-06-26T17:14:47.179Z,14.53
2019-06-26T17:17:36.641Z,14.28
2019-06-26T17:20:25.662Z,14.60
2019-06-26T17:23:15.109Z,14.38
2019-06-26T17:26:04.343Z,14.53
2019-06-26T17:28:54.177Z,14.07
2019-06-26T17:31:43.205Z,15.80
2019-06-26T17:34:32.832Z,14.75
2019-06-26T17:37:21.851Z,14.93
2019-06-26T17:40:11.774Z,13.38
2019-06-26T17:43:11.929Z,14.68
2019-06-26T17:45:51.894Z,15.15
2019-06-26T17:48:41.266Z,14.35
2019-06-26T17:51:30.368Z,13.85
2019-06-26T17:54:19.009Z,14.40
2019-06-26T17:57:07.908Z,14.30
2019-06-26T17:59:56.787Z,15.05
2019-06-26T18:02:45.836Z,13.58
2019-06-26T18:05:35.539Z,14.28
2019-06-26T18:08:25.214Z,13.95
2019-06-26T18:11:14.756Z,13.50
2019-06-26T18:14:03.886Z,13.58
2019-06-26T18:16:53.209Z,13.90
2019-06-26T18:19:42.855Z,13.95
2019-06-26T18:22:31.827Z,13.35
2019-06-26T18:25:21.009Z,13.30
2019-06-26T18:28:09.760Z,13.40
2019-06-26T18:30:59.080Z,13.68
2019-06-26T18:33:48.658Z,13.58
2019-06-26T18:36:38.173Z,14.18
2019-06-26T18:39:27.712Z,12.78
2019-06-26T18:42:18.074Z,12.65
2019-06-26T18:45:07.606Z,13.05
2019-06-26T18:47:56.568Z,12.10
2019-06-26T18:50:45.509Z,13.43
2019-06-26T18:53:35.014Z,12.95
2019-06-26T18:56:23.960Z,11.85
2019-06-26T18:59:13.208Z,11.83
2019-06-26T19:02:02.331Z,12.80
2019-06-26T19:04:54.097Z,13.53
2019-06-26T19:07:42.676Z,11.95
2019-06-26T19:10:31.442Z,12.13
2019-06-26T19:13:20.877Z,12.28
2019-06-26T19:16:10.770Z,13.05
2019-06-26T19:18:59.646Z,11.53
2019-06-26T19:21:48.517Z,12.65
2019-06-26T19:24:38.179Z,12.30
2019-06-26T19:27:27.853Z,12.35
2019-06-26T19:30:17.802Z,12.40
2019-06-26T19:33:07.132Z,12.65
2019-06-26T19:35:56.290Z,12.30
2019-06-26T19:38:45.559Z,12.73
2019-06-26T19:41:35.043Z,12.15
2019-06-26T19:44:24.325Z,12.30
2019-06-26T19:47:13.861Z,13.10
2019-06-26T19:50:03.461Z,13.15
2019-06-26T19:52:53.139Z,12.93
2019-06-26T19:55:42.241Z,13.30
2019-06-26T19:58:31.247Z,12.30
2019-06-26T20:01:20.118Z,13.38
2019-06-26T20:04:09.523Z,12.47
2019-06-26T20:06:59.012Z,12.93
2019-06-26T20:09:47.873Z,12.98
2019-06-26T20:12:36.814Z,12.58
2019-06-26T20:15:25.691Z,12.88
2019-06-26T20:18:14.861Z,13.35
2019-06-26T20:21:04.210Z,13.13
2019-06-26T20:23:53.565Z,12.75
2019-06-26T20:26:42.557Z,12.70
2019-06-26T20:29:32.494Z,12.30
2019-06-26T20:32:21.888Z,12.45
2019-06-26T20:35:10.773Z,12.50
2019-06-26T20:38:00.210Z,12.10
2019-06-26T20:40:49.962Z,11.88
2019-06-26T20:43:39.124Z,11.43
2019-06-26T20:46:28.221Z,11.45
2019-06-26T20:49:17.077Z,10.90
2019-06-26T20:52:06.612Z,10.03
2019-06-26T20:55:00.996Z,10.30
2019-06-26T20:57:46.678Z,10.23
2019-06-26T21:00:36.197Z,10.23
2019-06-26T21:03:25.557Z,11.00
2019-06-26T21:06:15.171Z,10.95
2019-06-26T21:09:05.318Z,10.80
2019-06-26T21:11:54.547Z,10.38
2019-06-26T21:14:43.998Z,10.18
2019-06-26T21:17:33.795Z,10.03
2019-06-26T21:20:23.017Z,9.50
2019-06-26T21:23:18.372Z,11.00
2019-06-26T21:26:03.379Z,10.13
2019-06-26T21:28:52.571Z,9.70
2019-06-26T21:31:42.440Z,10.80
2019-06-26T21:34:31.723Z,10.10
2019-06-26T21:37:20.978Z,9.83
2019-06-26T21:40:10.410Z,10.15
2019-06-26T21:42:59.289Z,9.60
2019-06-26T21:45:48.919Z,9.05
2019-06-26T21:48:38.322Z,8.63
2019-06-26T21:51:27.557Z,7.97
2019-06-26T21:54:17.544Z,8.45
2019-06-26T21:57:09.297Z,8.68
2019-06-26T21:59:58.173Z,8.35
2019-06-26T22:02:47.431Z,7.62
2019-06-26T22:05:36.281Z,7.50
2019-06-26T22:08:25.603Z,8.43
2019-06-26T22:11:14.863Z,7.33
2019-06-26T22:14:04.122Z,7.75
2019-06-26T22:16:53.100Z,7.12
2019-06-26T22:19:42.046Z,6.95
2019-06-26T22:22:31.851Z,7.22
2019-06-26T22:25:20.823Z,6.95
2019-06-26T22:28:10.479Z,7.58
2019-06-26T22:30:59.924Z,6.72
2019-06-26T22:33:48.974Z,7.40
2019-06-26T22:36:38.576Z,6.85
2019-06-26T22:39:27.359Z,6.95
2019-06-26T22:42:15.961Z,6.50
2019-06-26T22:45:05.521Z,6.28
2019-06-26T22:47:54.722Z,6.62
2019-06-26T22:50:43.653Z,7.00
2019-06-26T22:53:32.643Z,7.20
2019-06-26T22:56:21.159Z,7.20
2019-06-26T22:59:09.993Z,6.65
2019-06-26T23:01:59.581Z,7.15
2019-06-26T23:04:48.899Z,7.08
2019-06-26T23:07:38.455Z,6.60
2019-06-26T23:10:27.902Z,6.70
2019-06-26T23:13:17.635Z,6.92
2019-06-26T23:16:07.007Z,6.35
2019-06-26T23:18:55.816Z,6.35
2019-06-26T23:21:45.248Z,5.55
2019-06-26T23:24:34.037Z,6.00
2019-06-26T23:27:23.235Z,5.70
2019-06-26T23:30:18.790Z,5.47
2019-06-26T23:33:07.383Z,5.50
2019-06-26T23:35:56.554Z,5.72
2019-06-26T23:38:45.811Z,5.40
2019-06-26T23:41:35.416Z,5.92
2019-06-26T23:44:25.282Z,5.40
2019-06-26T23:47:14.344Z,5.67
2019-06-26T23:50:03.477Z,5.85
2019-06-26T23:52:52.875Z,4.50
2019-06-26T23:55:41.942Z,5.00
2019-06-26T23:58:31.362Z,4.87
